sensor_id;sensor_type;location;lat;lon;timestamp;pressure;altitude;pressure_sealevel;temperature;humidity
21588;BME280;10956;48.878;13.316;2023-04-15T00:00:13;92839.50;;;4.30;100.00
21588;BME280;10956;48.878;13.316;2023-04-15T00:02:39;92836.91;;;4.30;100.00
21588;BME280;10956;48.878;13.316;2023-04-15T00:05:05;92835.84;;;4.31;100.00
21588;BME280;10956;48.878;13.316;2023-04-15T00:07:31;92823.84;;;4.30;100.00
21588;BME280;10956;48.878;13.316;2023-04-15T00:09:57;92831.41;;;4.31;100.00
21588;BME280;10956;48.878;13.316;2023-04-15T00:12:23;92829.06;;;4.30;100.00
21588;BME280;10956;48.878;13.316;2023-04-15T00:14:49;92827.25;;;4.25;100.00
21588;BME280;10956;48.878;13.316;2023-04-15T00:17:15;92820.22;;;4.31;100.00
21588;BME280;10956;48.878;13.316;2023-04-15T00:19:41;92827.50;;;4.29;100.00
21588;BME280;10956;48.878;13.316;2023-04-15T00:22:06;92817.88;;;4.39;100.00
21588;BME280;10956;48.878;13.316;2023-04-15T00:24:32;92822.81;;;4.46;100.00
21588;BME280;10956;48.878;13.316;2023-04-15T00:26:58;92816.81;;;4.45;100.00
21588;BME280;10956;48.878;13.316;2023-04-15T00:29:24;92822.81;;;4.46;100.00
21588;BME280;10956;48.878;13.316;2023-04-15T00:31:50;92824.38;;;4.42;100.00
21588;BME280;10956;48.878;13.316;2023-04-15T00:34:16;92817.59;;;4.46;100.00
21588;BME280;10956;48.878;13.316;2023-04-15T00:36:41;92815.00;;;4.41;100.00
21588;BME280;10956;48.878;13.316;2023-04-15T00:39:07;92817.34;;;4.37;100.00
21588;BME280;10956;48.878;13.316;2023-04-15T00:41:32;92816.03;;;4.35;100.00
21588;BME280;10956;48.878;13.316;2023-04-15T00:43:59;92808.22;;;4.35;100.00
21588;BME280;10956;48.878;13.316;2023-04-15T00:46:26;92810.81;;;4.35;100.00
21588;BME280;10956;48.878;13.316;2023-04-15T00:48:53;92810.81;;;4.35;100.00
21588;BME280;10956;48.878;13.316;2023-04-15T00:51:19;92804.56;;;4.41;100.00
21588;BME280;10956;48.878;13.316;2023-04-15T00:53:44;92802.22;;;4.39;100.00
21588;BME280;10956;48.878;13.316;2023-04-15T00:56:10;92806.13;;;4.42;100.00
21588;BME280;10956;48.878;13.316;2023-04-15T00:58:36;92809.25;;;4.34;100.00
21588;BME280;10956;48.878;13.316;2023-04-15T01:01:02;92803.53;;;4.32;100.00
21588;BME280;10956;48.878;13.316;2023-04-15T01:03:28;92803.53;;;4.37;100.00
21588;BME280;10956;48.878;13.316;2023-04-15T01:05:54;92804.56;;;4.31;100.00
21588;BME280;10956;48.878;13.316;2023-04-15T01:08:26;92808.75;;;4.32;100.00
21588;BME280;10956;48.878;13.316;2023-04-15T01:10:53;92806.13;;;4.32;100.00
21588;BME280;10956;48.878;13.316;2023-04-15T01:13:22;92804.03;;;4.34;100.00
21588;BME280;10956;48.878;13.316;2023-04-15T01:15:48;92804.03;;;4.39;100.00
21588;BME280;10956;48.878;13.316;2023-04-15T01:18:13;92806.38;;;4.35;100.00
21588;BME280;10956;48.878;13.316;2023-04-15T01:20:39;92801.97;;;4.36;100.00
21588;BME280;10956;48.878;13.316;2023-04-15T01:23:05;92804.56;;;4.31;100.00
21588;BME280;10956;48.878;13.316;2023-04-15T01:25:31;92800.91;;;4.32;100.00
21588;BME280;10956;48.878;13.316;2023-04-15T01:27:57;92805.34;;;4.31;100.00
21588;BME280;10956;48.878;13.316;2023-04-15T01:30:23;92792.31;;;4.26;100.00
21588;BME280;10956;48.878;13.316;2023-04-15T01:32:50;92799.88;;;4.28;100.00
21588;BME280;10956;48.878;13.316;2023-04-15T01:35:16;92794.13;;;4.26;100.00
21588;BME280;10956;48.878;13.316;2023-04-15T01:37:41;92800.38;;;4.25;100.00
21588;BME280;10956;48.878;13.316;2023-04-15T01:40:07;92801.97;;;4.26;100.00
21588;BME280;10956;48.878;13.316;2023-04-15T01:42:35;92803.53;;;4.27;100.00
21588;BME280;10956;48.878;13.316;2023-04-15T01:45:01;92792.56;;;4.25;100.00
21588;BME280;10956;48.878;13.316;2023-04-15T01:47:27;92796.22;;;4.29;100.00
21588;BME280;10956;48.878;13.316;2023-04-15T01:49:52;92803.78;;;4.30;100.00
21588;BME280;10956;48.878;13.316;2023-04-15T01:52:17;92789.44;;;4.28;100.00
21588;BME280;10956;48.878;13.316;2023-04-15T01:54:43;92798.31;;;4.27;100.00
21588;BME280;10956;48.878;13.316;2023-04-15T01:57:09;92792.84;;;4.28;100.00
21588;BME280;10956;48.878;13.316;2023-04-15T01:59:34;92794.41;;;4.29;100.00
21588;BME280;10956;48.878;13.316;2023-04-15T02:02:00;92798.03;;;4.33;100.00
21588;BME280;10956;48.878;13.316;2023-04-15T02:04:25;92801.97;;;4.36;100.00
21588;BME280;10956;48.878;13.316;2023-04-15T02:06:52;92805.09;;;4.28;100.00
21588;BME280;10956;48.878;13.316;2023-04-15T02:09:17;92804.31;;;4.27;100.00
21588;BME280;10956;48.878;13.316;2023-04-15T02:11:43;92815.53;;;4.33;100.00
21588;BME280;10956;48.878;13.316;2023-04-15T02:14:09;92812.91;;;4.33;100.00
21588;BME280;10956;48.878;13.316;2023-04-15T02:16:34;92812.38;;;4.36;100.00
21588;BME280;10956;48.878;13.316;2023-04-15T02:19:00;92805.59;;;4.25;100.00
21588;BME280;10956;48.878;13.316;2023-04-15T02:21:26;92801.97;;;4.31;100.00
21588;BME280;10956;48.878;13.316;2023-04-15T02:23:51;92801.69;;;4.32;100.00
21588;BME280;10956;48.878;13.316;2023-04-15T02:26:18;92811.09;;;4.38;100.00
21588;BME280;10956;48.878;13.316;2023-04-15T02:28:43;92803.00;;;4.30;100.00
21588;BME280;10956;48.878;13.316;2023-04-15T02:31:09;92805.88;;;4.28;100.00
21588;BME280;10956;48.878;13.316;2023-04-15T02:33:34;92796.22;;;4.29;100.00
21588;BME280;10956;48.878;13.316;2023-04-15T02:36:01;92810.31;;;4.28;100.00
21588;BME280;10956;48.878;13.316;2023-04-15T02:38:26;92801.44;;;4.18;100.00
21588;BME280;10956;48.878;13.316;2023-04-15T02:40:51;92801.44;;;4.18;100.00
21588;BME280;10956;48.878;13.316;2023-04-15T02:43:17;92801.69;;;4.22;100.00
21588;BME280;10956;48.878;13.316;2023-04-15T02:45:43;92801.44;;;4.18;100.00
21588;BME280;10956;48.878;13.316;2023-04-15T02:48:09;92800.38;;;4.14;100.00
21588;BME280;10956;48.878;13.316;2023-04-15T02:50:35;92807.69;;;4.12;100.00
21588;BME280;10956;48.878;13.316;2023-04-15T02:53:03;92807.16;;;4.15;100.00
21588;BME280;10956;48.878;13.316;2023-04-15T02:55:30;92813.41;;;4.19;100.00
21588;BME280;10956;48.878;13.316;2023-04-15T02:57:55;92816.81;;;4.20;100.00
21588;BME280;10956;48.878;13.316;2023-04-15T03:00:22;92807.44;;;4.19;100.00
21588;BME280;10956;48.878;13.316;2023-04-15T03:02:49;92810.28;;;4.17;100.00
21588;BME280;10956;48.878;13.316;2023-04-15T03:05:20;92808.97;;;4.00;100.00
21588;BME280;10956;48.878;13.316;2023-04-15T03:07:47;92809.75;;;4.00;100.00
21588;BME280;10956;48.878;13.316;2023-04-15T03:10:13;92817.56;;;3.95;100.00
21588;BME280;10956;48.878;13.316;2023-04-15T03:12:38;92815.19;;;3.88;100.00
21588;BME280;10956;48.878;13.316;2023-04-15T03:15:05;92812.88;;;3.92;100.00
21588;BME280;10956;48.878;13.316;2023-04-15T03:17:30;92807.66;;;3.92;100.00
21588;BME280;10956;48.878;13.316;2023-04-15T03:19:56;92816.00;;;3.94;100.00
21588;BME280;10956;48.878;13.316;2023-04-15T03:22:21;92811.81;;;3.83;100.00
21588;BME280;10956;48.878;13.316;2023-04-15T03:24:47;92800.84;;;3.81;100.00
21588;BME280;10956;48.878;13.316;2023-04-15T03:27:12;92814.13;;;3.79;100.00
21588;BME280;10956;48.878;13.316;2023-04-15T03:29:37;92807.09;;;3.75;100.00
21588;BME280;10956;48.878;13.316;2023-04-15T03:32:03;92817.53;;;3.75;100.00
21588;BME280;10956;48.878;13.316;2023-04-15T03:34:28;92811.78;;;3.68;100.00
21588;BME280;10956;48.878;13.316;2023-04-15T03:36:54;92809.44;;;3.76;100.00
21588;BME280;10956;48.878;13.316;2023-04-15T03:39:20;92796.66;;;3.75;100.00
21588;BME280;10956;48.878;13.316;2023-04-15T03:41:45;92802.41;;;3.77;100.00
21588;BME280;10956;48.878;13.316;2023-04-15T03:44:11;92806.59;;;3.78;100.00
21588;BME280;10956;48.878;13.316;2023-04-15T03:46:36;92799.78;;;3.72;100.00
21588;BME280;10956;48.878;13.316;2023-04-15T03:49:02;92803.94;;;3.68;100.00
21588;BME280;10956;48.878;13.316;2023-04-15T03:51:27;92798.19;;;3.55;100.00
21588;BME280;10956;48.878;13.316;2023-04-15T03:53:53;92805.00;;;3.67;100.00
21588;BME280;10956;48.878;13.316;2023-04-15T03:56:18;92802.38;;;3.67;100.00
21588;BME280;10956;48.878;13.316;2023-04-15T03:58:43;92807.06;;;3.65;100.00
21588;BME280;10956;48.878;13.316;2023-04-15T04:01:09;92798.44;;;3.54;100.00
21588;BME280;10956;48.878;13.316;2023-04-15T04:03:34;92805.47;;;3.53;100.00
21588;BME280;10956;48.878;13.316;2023-04-15T04:06:01;92802.88;;;3.59;100.00
21588;BME280;10956;48.878;13.316;2023-04-15T04:08:26;92803.41;;;3.55;100.00
21588;BME280;10956;48.878;13.316;2023-04-15T04:10:51;92805.47;;;3.53;100.00
21588;BME280;10956;48.878;13.316;2023-04-15T04:13:17;92811.69;;;3.47;100.00
21588;BME280;10956;48.878;13.316;2023-04-15T04:15:42;92809.56;;;3.34;100.00
21588;BME280;10956;48.878;13.316;2023-04-15T04:18:08;92805.88;;;3.25;100.00
21588;BME280;10956;48.878;13.316;2023-04-15T04:20:33;92803.25;;;3.20;100.00
21588;BME280;10956;48.878;13.316;2023-04-15T04:22:58;92813.16;;;3.18;100.00
21588;BME280;10956;48.878;13.316;2023-04-15T04:25:24;92804.53;;;3.12;100.00
21588;BME280;10956;48.878;13.316;2023-04-15T04:27:50;92822.44;;;3.04;100.00
21588;BME280;10956;48.878;13.316;2023-04-15T04:30:15;92813.09;;;3.08;100.00
21588;BME280;10956;48.878;13.316;2023-04-15T04:32:41;92822.72;;;3.07;100.00
21588;BME280;10956;48.878;13.316;2023-04-15T04:35:06;92821.94;;;3.07;100.00
21588;BME280;10956;48.878;13.316;2023-04-15T04:37:32;92816.72;;;3.07;100.00
21588;BME280;10956;48.878;13.316;2023-04-15T04:39:57;92829.72;;;3.02;100.00
21588;BME280;10956;48.878;13.316;2023-04-15T04:42:23;92828.59;;;2.87;100.00
21588;BME280;10956;48.878;13.316;2023-04-15T04:44:48;92818.19;;;2.87;100.00
21588;BME280;10956;48.878;13.316;2023-04-15T04:47:13;92820.03;;;2.92;100.00
21588;BME280;10956;48.878;13.316;2023-04-15T04:49:39;92820.50;;;2.84;100.00
21588;BME280;10956;48.878;13.316;2023-04-15T04:52:07;92827.03;;;2.86;100.00
21588;BME280;10956;48.878;13.316;2023-04-15T04:54:33;92830.19;;;2.94;100.00
21588;BME280;10956;48.878;13.316;2023-04-15T04:56:59;92833.63;;;2.99;100.00
21588;BME280;10956;48.878;13.316;2023-04-15T04:59:25;92829.72;;;3.02;100.00
21588;BME280;10956;48.878;13.316;2023-04-15T05:01:51;92825.75;;;2.89;100.00
21588;BME280;10956;48.878;13.316;2023-04-15T05:04:16;92826.25;;;2.86;100.00
21588;BME280;10956;48.878;13.316;2023-04-15T05:06:42;92825.47;;;2.85;100.00
21588;BME280;10956;48.878;13.316;2023-04-15T05:09:08;92826.75;;;2.83;100.00
21588;BME280;10956;48.878;13.316;2023-04-15T05:11:33;92830.06;;;2.73;100.00
21588;BME280;10956;48.878;13.316;2023-04-15T05:13:59;92826.47;;;2.79;100.00
21588;BME280;10956;48.878;13.316;2023-04-15T05:16:26;92824.13;;;2.78;100.00
21588;BME280;10956;48.878;13.316;2023-04-15T05:18:51;92832.72;;;2.78;100.00
21588;BME280;10956;48.878;13.316;2023-04-15T05:21:17;92842.34;;;2.83;100.00
21588;BME280;10956;48.878;13.316;2023-04-15T05:23:43;92850.19;;;2.88;100.00
21588;BME280;10956;48.878;13.316;2023-04-15T05:26:08;92851.56;;;3.01;100.00
21588;BME280;10956;48.878;13.316;2023-04-15T05:28:34;92862.28;;;3.09;100.00
21588;BME280;10956;48.878;13.316;2023-04-15T05:31:00;92863.63;;;3.17;100.00
21588;BME280;10956;48.878;13.316;2023-04-15T05:33:25;92857.88;;;3.10;100.00
21588;BME280;10956;48.878;13.316;2023-04-15T05:35:51;92851.09;;;3.09;100.00
21588;BME280;10956;48.878;13.316;2023-04-15T05:38:17;92858.38;;;3.07;100.00
21588;BME280;10956;48.878;13.316;2023-04-15T05:40:42;92861.00;;;3.12;100.00
21588;BME280;10956;48.878;13.316;2023-04-15T05:43:08;92854.78;;;3.18;100.00
21588;BME280;10956;48.878;13.316;2023-04-15T05:45:33;92859.44;;;3.11;100.00
21588;BME280;10956;48.878;13.316;2023-04-15T05:47:58;92858.38;;;3.07;100.00
21588;BME280;10956;48.878;13.316;2023-04-15T05:50:24;92868.84;;;3.17;100.00
21588;BME280;10956;48.878;13.316;2023-04-15T05:52:49;92873.28;;;3.21;100.00
21588;BME280;10956;48.878;13.316;2023-04-15T05:55:15;92878.03;;;3.30;100.00
21588;BME280;10956;48.878;13.316;2023-04-15T05:57:40;92885.84;;;3.35;100.00
21588;BME280;10956;48.878;13.316;2023-04-15T06:00:07;92875.75;;;3.43;100.00
21588;BME280;10956;48.878;13.316;2023-04-15T06:02:34;92865.66;;;3.62;100.00
21588;BME280;10956;48.878;13.316;2023-04-15T06:04:59;92868.06;;;3.74;100.00
21588;BME280;10956;48.878;13.316;2023-04-15T06:07:25;92866.28;;;3.89;100.00
21588;BME280;10956;48.878;13.316;2023-04-15T06:09:50;92862.13;;;3.99;100.00
21588;BME280;10956;48.878;13.316;2023-04-15T06:12:16;92871.28;;;4.11;100.00
21588;BME280;10956;48.878;13.316;2023-04-15T06:14:42;92852.00;;;4.17;100.00
21588;BME280;10956;48.878;13.316;2023-04-15T06:17:07;92864.53;;;4.31;100.00
21588;BME280;10956;48.878;13.316;2023-04-15T06:19:33;92865.59;;;4.35;100.00
21588;BME280;10956;48.878;13.316;2023-04-15T06:22:00;92876.00;;;4.30;100.00
21588;BME280;10956;48.878;13.316;2023-04-15T06:24:26;92877.56;;;4.31;100.00
21588;BME280;10956;48.878;13.316;2023-04-15T06:26:51;92875.75;;;4.26;100.00
21588;BME280;10956;48.878;13.316;2023-04-15T06:29:16;92875.50;;;4.33;100.00
21588;BME280;10956;48.878;13.316;2023-04-15T06:31:42;92886.97;;;4.37;100.00
21588;BME280;10956;48.878;13.316;2023-04-15T06:34:07;92883.34;;;4.43;100.00
21588;BME280;10956;48.878;13.316;2023-04-15T06:36:32;92881.50;;;4.53;100.00
21588;BME280;10956;48.878;13.316;2023-04-15T06:38:58;92888.28;;;4.54;100.00
21588;BME280;10956;48.878;13.316;2023-04-15T06:41:23;92884.38;;;4.52;100.00
21588;BME280;10956;48.878;13.316;2023-04-15T06:43:49;92891.16;;;4.53;100.00
21588;BME280;10956;48.878;13.316;2023-04-15T06:46:15;92893.25;;;4.51;100.00
21588;BME280;10956;48.878;13.316;2023-04-15T06:48:41;92896.38;;;4.53;100.00
21588;BME280;10956;48.878;13.316;2023-04-15T06:51:06;92892.22;;;4.62;100.00
21588;BME280;10956;48.878;13.316;2023-04-15T06:53:32;92899.53;;;4.85;100.00
21588;BME280;10956;48.878;13.316;2023-04-15T06:55:57;92891.69;;;4.91;100.00
21588;BME280;10956;48.878;13.316;2023-04-15T06:58:23;92893.78;;;5.09;100.00
21588;BME280;10956;48.878;13.316;2023-04-15T07:00:48;92881.72;;;5.28;100.00
21588;BME280;10956;48.878;13.316;2023-04-15T07:03:14;92888.50;;;5.34;100.00
21588;BME280;10956;48.878;13.316;2023-04-15T07:05:39;92899.19;;;5.43;100.00
21588;BME280;10956;48.878;13.316;2023-04-15T07:08:05;92890.59;;;5.37;100.00
21588;BME280;10956;48.878;13.316;2023-04-15T07:10:32;92895.03;;;5.27;100.00
21588;BME280;10956;48.878;13.316;2023-04-15T07:12:57;92897.91;;;5.30;100.00
21588;BME280;10956;48.878;13.316;2023-04-15T07:15:22;92902.09;;;5.31;100.00
21588;BME280;10956;48.878;13.316;2023-04-15T07:17:48;92902.06;;;5.41;100.00
21588;BME280;10956;48.878;13.316;2023-04-15T07:20:13;92909.63;;;5.48;100.00
21588;BME280;10956;48.878;13.316;2023-04-15T07:22:39;92903.91;;;5.36;100.00
21588;BME280;10956;48.878;13.316;2023-04-15T07:25:05;92906.78;;;5.39;100.00
21588;BME280;10956;48.878;13.316;2023-04-15T07:27:31;92915.94;;;5.32;100.00
21588;BME280;10956;48.878;13.316;2023-04-15T07:29:57;92909.44;;;5.19;100.00
21588;BME280;10956;48.878;13.316;2023-04-15T07:32:22;92917.78;;;5.01;100.00
21588;BME280;10956;48.878;13.316;2023-04-15T07:34:47;92923.53;;;4.98;100.00
21588;BME280;10956;48.878;13.316;2023-04-15T07:37:14;92913.63;;;5.05;100.00
21588;BME280;10956;48.878;13.316;2023-04-15T07:39:39;92930.84;;;5.16;100.00
21588;BME280;10956;48.878;13.316;2023-04-15T07:42:04;92916.22;;;5.20;100.00
21588;BME280;10956;48.878;13.316;2023-04-15T07:44:30;92929.25;;;5.30;100.00
21588;BME280;10956;48.878;13.316;2023-04-15T07:46:56;92927.41;;;5.41;100.00
21588;BME280;10956;48.878;13.316;2023-04-15T07:49:21;92923.22;;;5.45;100.00
21588;BME280;10956;48.878;13.316;2023-04-15T07:51:47;92938.91;;;5.45;100.00
21588;BME280;10956;48.878;13.316;2023-04-15T07:54:14;92926.06;;;5.54;100.00
21588;BME280;10956;48.878;13.316;2023-04-15T07:56:39;92928.16;;;5.57;100.00
21588;BME280;10956;48.878;13.316;2023-04-15T07:59:05;92928.16;;;5.62;100.00
21588;BME280;10956;48.878;13.316;2023-04-15T08:01:31;92936.50;;;5.64;100.00
21588;BME280;10956;48.878;13.316;2023-04-15T08:03:57;92938.06;;;5.65;100.00
21588;BME280;10956;48.878;13.316;2023-04-15T08:06:23;92937.03;;;5.61;100.00
21588;BME280;10956;48.878;13.316;2023-04-15T08:08:49;92936.25;;;5.60;100.00
21588;BME280;10956;48.878;13.316;2023-04-15T08:11:14;92945.91;;;5.70;100.00
21588;BME280;10956;48.878;13.316;2023-04-15T08:13:40;92936.47;;;5.74;100.00
21588;BME280;10956;48.878;13.316;2023-04-15T08:16:20;92946.91;;;5.94;100.00
21588;BME280;10956;48.878;13.316;2023-04-15T08:18:47;92945.84;;;5.95;100.00
21588;BME280;10956;48.878;13.316;2023-04-15T08:21:13;92949.00;;;5.82;100.00
21588;BME280;10956;48.878;13.316;2023-04-15T08:23:39;92946.94;;;5.74;100.00
21588;BME280;10956;48.878;13.316;2023-04-15T08:26:04;92935.97;;;5.67;100.00
21588;BME280;10956;48.878;13.316;2023-04-15T08:28:30;92951.91;;;5.70;100.00
21588;BME280;10956;48.878;13.316;2023-04-15T08:30:55;92956.31;;;5.80;100.00
21588;BME280;10956;48.878;13.316;2023-04-15T08:33:21;92953.44;;;5.81;100.00
21588;BME280;10956;48.878;13.316;2023-04-15T08:35:47;92954.75;;;5.79;100.00
21588;BME280;10956;48.878;13.316;2023-04-15T08:38:13;92955.81;;;5.73;100.00
21588;BME280;10956;48.878;13.316;2023-04-15T08:40:43;92966.31;;;5.63;100.00
21588;BME280;10956;48.878;13.316;2023-04-15T08:43:12;92963.69;;;5.58;100.00
21588;BME280;10956;48.878;13.316;2023-04-15T08:45:40;92973.63;;;5.66;100.00
21588;BME280;10956;48.878;13.316;2023-04-15T08:48:06;92972.56;;;5.72;100.00
21588;BME280;10956;48.878;13.316;2023-04-15T08:50:33;92957.91;;;5.76;100.00
21588;BME280;10956;48.878;13.316;2023-04-15T08:52:59;92966.25;;;5.78;100.00
21588;BME280;10956;48.878;13.316;2023-04-15T08:55:31;92969.13;;;5.92;100.00
21588;BME280;10956;48.878;13.316;2023-04-15T08:58:00;92968.00;;;6.18;100.00
21588;BME280;10956;48.878;13.316;2023-04-15T09:00:27;92971.38;;;6.24;100.00
21588;BME280;10956;48.878;13.316;2023-04-15T09:02:55;92965.06;;;6.30;100.00
21588;BME280;10956;48.878;13.316;2023-04-15T09:05:21;92967.56;;;6.55;100.00
21588;BME280;10956;48.878;13.316;2023-04-15T09:07:49;92970.16;;;6.60;100.00
21588;BME280;10956;48.878;13.316;2023-04-15T09:10:14;92977.50;;;6.58;100.00
21588;BME280;10956;48.878;13.316;2023-04-15T09:12:40;92980.38;;;6.57;100.00
21588;BME280;10956;48.878;13.316;2023-04-15T09:15:07;92972.72;;;6.65;100.00
21588;BME280;10956;48.878;13.316;2023-04-15T09:17:41;92981.03;;;6.77;100.00
21588;BME280;10956;48.878;13.316;2023-04-15T09:20:13;92975.44;;;6.94;100.00
21588;BME280;10956;48.878;13.316;2023-04-15T09:22:40;92980.69;;;7.28;100.00
21588;BME280;10956;48.878;13.316;2023-04-15T09:25:26;92984.53;;;7.70;100.00
21588;BME280;10956;48.878;13.316;2023-04-15T09:27:54;92981.91;;;7.94;100.00
21588;BME280;10956;48.878;13.316;2023-04-15T09:30:20;92988.97;;;7.98;100.00
21588;BME280;10956;48.878;13.316;2023-04-15T09:32:53;92990.06;;;7.92;100.00
21588;BME280;10956;48.878;13.316;2023-04-15T09:35:20;92979.22;;;7.75;100.00
21588;BME280;10956;48.878;13.316;2023-04-15T09:37:48;92987.09;;;7.75;100.00
21588;BME280;10956;48.878;13.316;2023-04-15T09:40:13;92984.00;;;7.68;100.00
21588;BME280;10956;48.878;13.316;2023-04-15T09:42:55;92989.50;;;7.71;100.00
21588;BME280;10956;48.878;13.316;2023-04-15T09:45:21;92991.28;;;7.76;100.00
21588;BME280;10956;48.878;13.316;2023-04-15T09:47:47;92985.81;;;7.96;100.00
21588;BME280;10956;48.878;13.316;2023-04-15T09:50:12;92986.16;;;8.14;100.00
21588;BME280;10956;48.878;13.316;2023-04-15T09:52:43;92987.06;;;8.04;100.00
21588;BME280;10956;48.878;13.316;2023-04-15T09:55:09;93001.47;;;8.06;100.00
21588;BME280;10956;48.878;13.316;2023-04-15T09:57:37;92993.16;;;7.99;100.00
21588;BME280;10956;48.878;13.316;2023-04-15T10:00:03;92996.59;;;7.95;100.00
21588;BME280;10956;48.878;13.316;2023-04-15T10:02:29;92994.72;;;8.00;100.00
21588;BME280;10956;48.878;13.316;2023-04-15T10:04:56;92989.41;;;8.05;100.00
21588;BME280;10956;48.878;13.316;2023-04-15T10:07:22;92990.84;;;8.17;100.00
21588;BME280;10956;48.878;13.316;2023-04-15T10:09:48;92986.16;;;8.14;100.00
21588;BME280;10956;48.878;13.316;2023-04-15T10:12:16;92994.19;;;7.98;100.00
21588;BME280;10956;48.878;13.316;2023-04-15T10:14:42;92995.16;;;8.07;100.00
21588;BME280;10956;48.878;13.316;2023-04-15T10:17:12;92992.41;;;8.18;100.00
21588;BME280;10956;48.878;13.316;2023-04-15T10:19:37;92988.59;;;8.34;100.00
21588;BME280;10956;48.878;13.316;2023-04-15T10:22:03;92994.28;;;8.41;100.00
21588;BME280;10956;48.878;13.316;2023-04-15T10:24:31;93001.19;;;8.32;100.00
21588;BME280;10956;48.878;13.316;2023-04-15T10:26:59;93001.97;;;8.32;100.00
21588;BME280;10956;48.878;13.316;2023-04-15T10:29:24;93011.97;;;8.30;100.00
21588;BME280;10956;48.878;13.316;2023-04-15T10:32:00;93011.28;;;8.20;100.00
21588;BME280;10956;48.878;13.316;2023-04-15T10:34:26;93011.84;;;8.17;100.00
21588;BME280;10956;48.878;13.316;2023-04-15T10:36:57;93011.75;;;8.27;100.00
21588;BME280;10956;48.878;13.316;2023-04-15T10:39:39;93013.44;;;8.41;100.00
21588;BME280;10956;48.878;13.316;2023-04-15T10:42:10;93010.41;;;8.53;100.00
21588;BME280;10956;48.878;13.316;2023-04-15T10:44:37;93022.22;;;8.74;100.00
21588;BME280;10956;48.878;13.316;2023-04-15T10:47:19;93019.69;;;8.88;100.00
21588;BME280;10956;48.878;13.316;2023-04-15T10:49:56;93011.44;;;8.95;100.00
21588;BME280;10956;48.878;13.316;2023-04-15T10:52:27;93018.00;;;9.16;100.00
21588;BME280;10956;48.878;13.316;2023-04-15T10:57:34;93016.78;;;9.27;100.00
21588;BME280;10956;48.878;13.316;2023-04-15T11:05:14;93020.91;;;9.15;100.00
21588;BME280;10956;48.878;13.316;2023-04-15T11:12:46;93031.00;;;9.59;100.00
21588;BME280;10956;48.878;13.316;2023-04-15T11:15:40;93028.22;;;9.69;100.00
21588;BME280;10956;48.878;13.316;2023-04-15T11:20:40;93035.28;;;10.20;100.00
21588;BME280;10956;48.878;13.316;2023-04-15T11:23:05;93033.72;;;10.46;98.89
21588;BME280;10956;48.878;13.316;2023-04-15T11:25:33;93034.50;;;10.60;97.80
21588;BME280;10956;48.878;13.316;2023-04-15T11:28:00;93033.34;;;10.53;97.09
21588;BME280;10956;48.878;13.316;2023-04-15T11:30:28;93036.47;;;10.41;97.12
21588;BME280;10956;48.878;13.316;2023-04-15T11:32:58;93037.16;;;10.00;98.00
21588;BME280;10956;48.878;13.316;2023-04-15T11:35:24;93042.34;;;9.73;98.01
21588;BME280;10956;48.878;13.316;2023-04-15T11:37:50;93047.03;;;9.44;98.80
21588;BME280;10956;48.878;13.316;2023-04-15T11:40:19;93040.34;;;9.32;100.00
21588;BME280;10956;48.878;13.316;2023-04-15T11:42:46;93045.53;;;9.37;100.00
21588;BME280;10956;48.878;13.316;2023-04-15T11:45:13;93048.78;;;9.67;100.00
21588;BME280;10956;48.878;13.316;2023-04-15T11:47:40;93048.28;;;9.65;100.00
21588;BME280;10956;48.878;13.316;2023-04-15T11:50:17;93052.25;;;9.62;99.89
21588;BME280;10956;48.878;13.316;2023-04-15T11:52:56;93054.69;;;9.91;99.89
21588;BME280;10956;48.878;13.316;2023-04-15T11:55:23;93042.59;;;9.90;100.00
21588;BME280;10956;48.878;13.316;2023-04-15T11:58:11;93058.38;;;9.90;100.00
21588;BME280;10956;48.878;13.316;2023-04-15T12:00:39;93056.59;;;9.72;100.00
21588;BME280;10956;48.878;13.316;2023-04-15T12:03:26;93056.75;;;9.62;100.00
21588;BME280;10956;48.878;13.316;2023-04-15T12:06:20;93054.13;;;9.43;100.00
21588;BME280;10956;48.878;13.316;2023-04-15T12:16:27;93069.50;;;8.74;100.00
21588;BME280;10956;48.878;13.316;2023-04-15T12:18:55;93067.03;;;8.83;100.00
21588;BME280;10956;48.878;13.316;2023-04-15T12:21:22;93065.28;;;9.16;100.00
21588;BME280;10956;48.878;13.316;2023-04-15T12:23:53;93064.97;;;9.74;100.00
21588;BME280;10956;48.878;13.316;2023-04-15T12:26:32;93072.69;;;10.17;100.00
21588;BME280;10956;48.878;13.316;2023-04-15T12:31:27;93076.66;;;10.47;99.60
21588;BME280;10956;48.878;13.316;2023-04-15T12:33:59;93081.13;;;10.32;100.00
21588;BME280;10956;48.878;13.316;2023-04-15T12:36:26;93092.47;;;10.14;100.00
21588;BME280;10956;48.878;13.316;2023-04-15T12:38:51;93084.13;;;9.93;100.00
21588;BME280;10956;48.878;13.316;2023-04-15T12:41:17;93088.16;;;9.72;100.00
21588;BME280;10956;48.878;13.316;2023-04-15T12:43:44;93094.56;;;9.66;100.00
21588;BME280;10956;48.878;13.316;2023-04-15T12:46:10;93089.44;;;9.56;100.00
21588;BME280;10956;48.878;13.316;2023-04-15T12:48:36;93093.72;;;9.52;100.00
21588;BME280;10956;48.878;13.316;2023-04-15T12:51:01;93097.47;;;9.46;100.00
21588;BME280;10956;48.878;13.316;2023-04-15T12:53:27;93092.56;;;9.58;100.00
21588;BME280;10956;48.878;13.316;2023-04-15T12:55:52;93111.59;;;9.87;100.00
21588;BME280;10956;48.878;13.316;2023-04-15T12:58:18;93100.50;;;10.23;100.00
21588;BME280;10956;48.878;13.316;2023-04-15T13:00:44;93107.84;;;10.40;100.00
21588;BME280;10956;48.878;13.316;2023-04-15T13:03:09;93111.19;;;10.45;100.00
21588;BME280;10956;48.878;13.316;2023-04-15T13:05:35;93117.81;;;10.43;100.00
21588;BME280;10956;48.878;13.316;2023-04-15T13:08:01;93117.03;;;10.42;99.94
21588;BME280;10956;48.878;13.316;2023-04-15T13:10:28;93115.75;;;10.40;97.97
21588;BME280;10956;48.878;13.316;2023-04-15T13:12:53;93121.63;;;10.50;98.47